createdAt,value
2023-01-17T17:07:31.403Z,2.25
2023-01-17T17:08:31.321Z,2.22
2023-01-17T17:09:31.261Z,2.19
2023-01-17T17:10:31.207Z,2.15
2023-01-17T17:11:31.156Z,2.08
2023-01-17T17:12:31.101Z,2.08
2023-01-17T17:13:31.041Z,2.07
2023-01-17T17:14:31.007Z,2.07
2023-01-17T17:15:30.962Z,2.04
2023-01-17T17:16:30.912Z,2.10
2023-01-17T17:17:31.047Z,1.98
2023-01-17T17:18:30.793Z,2.04
2023-01-17T17:19:30.737Z,2.01
2023-01-17T17:20:30.685Z,2.00
2023-01-17T17:21:30.645Z,1.98
2023-01-17T17:22:30.579Z,1.92
2023-01-17T17:23:30.560Z,1.95
2023-01-17T17:24:30.491Z,1.98
2023-01-17T17:25:30.427Z,1.92
2023-01-17T17:26:30.382Z,1.89
2023-01-17T17:27:30.330Z,1.92
2023-01-17T17:28:30.283Z,1.89
2023-01-17T17:29:30.245Z,1.86
2023-01-17T17:30:30.180Z,1.79
2023-01-17T17:31:30.206Z,1.84
2023-01-17T17:32:30.081Z,1.85
2023-01-17T17:33:30.032Z,1.85
2023-01-17T17:34:29.983Z,1.74
2023-01-17T17:35:29.929Z,1.84
2023-01-17T17:36:29.882Z,1.84
2023-01-17T17:37:29.832Z,1.75
2023-01-17T17:58:56.663Z,1.53
2023-01-17T17:59:56.684Z,1.57
2023-01-17T18:00:56.508Z,1.53
2023-01-17T18:01:56.496Z,1.49
2023-01-17T18:02:56.380Z,1.50
2023-01-17T18:03:56.331Z,1.43
2023-01-17T18:04:56.309Z,1.48
2023-01-17T18:05:56.222Z,1.43
2023-01-17T18:06:56.175Z,1.36
2023-01-17T18:07:56.539Z,1.42
2023-01-17T18:08:56.086Z,1.32
2023-01-17T18:09:56.037Z,1.28
2023-01-17T18:10:55.971Z,1.32
2023-01-17T18:11:55.920Z,1.28
2023-01-17T18:12:55.863Z,1.28
2023-01-17T18:13:55.815Z,1.25
2023-01-17T18:14:55.798Z,1.30
2023-01-17T18:15:55.730Z,1.27
2023-01-17T18:16:55.661Z,1.27
2023-01-17T18:17:55.796Z,1.22
2023-01-17T18:18:55.576Z,1.22
2023-01-17T18:19:55.598Z,1.28
2023-01-17T18:20:55.466Z,1.24
2023-01-17T18:21:55.436Z,1.18
2023-01-17T18:22:55.373Z,1.22
2023-01-17T18:23:55.313Z,1.20
2023-01-17T18:24:55.269Z,1.16
2023-01-17T18:25:55.218Z,1.20
2023-01-17T18:26:55.165Z,1.18
2023-01-17T18:27:55.425Z,1.24
2023-01-17T18:28:55.066Z,1.18
2023-01-17T18:29:55.144Z,1.20
2023-01-17T18:30:54.988Z,1.16
2023-01-17T18:31:54.928Z,1.21
2023-01-17T18:32:54.873Z,1.24
2023-01-17T18:33:54.828Z,1.21
2023-01-17T18:34:54.774Z,1.21
2023-01-17T18:35:54.740Z,1.18
2023-01-17T18:36:54.684Z,1.10
2023-01-17T18:37:55.012Z,1.09
2023-01-17T18:38:54.572Z,1.13
2023-01-17T18:39:54.560Z,1.07
2023-01-17T18:40:54.485Z,1.09
2023-01-17T18:41:54.443Z,1.18
2023-01-17T18:42:54.556Z,1.10
2023-01-17T18:43:54.373Z,1.14
2023-01-17T18:44:54.275Z,1.20
2023-01-17T18:45:54.227Z,1.18
2023-01-17T18:46:54.376Z,0.96
2023-01-17T18:47:54.323Z,1.03
2023-01-17T18:48:54.078Z,1.04
2023-01-17T18:49:54.180Z,1.04
2023-01-17T18:50:53.978Z,1.13
2023-01-17T18:51:53.932Z,1.12
2023-01-17T18:52:54.248Z,1.02
2023-01-17T18:53:53.843Z,1.12
2023-01-17T18:54:53.783Z,1.12
2023-01-17T18:55:56.233Z,1.16
2023-01-17T18:56:53.683Z,1.16
2023-01-17T18:57:53.942Z,1.03
2023-01-17T18:58:53.628Z,1.10
2023-01-17T18:59:53.610Z,1.09
2023-01-17T19:00:53.590Z,0.96
2023-01-17T19:01:53.549Z,1.06
2023-01-17T19:02:53.411Z,1.07
2023-01-17T19:03:53.414Z,1.09
2023-01-17T19:04:53.291Z,1.03
2023-01-17T19:05:53.246Z,1.07
2023-01-17T19:06:53.193Z,1.06
2023-01-17T19:07:53.654Z,1.07
2023-01-17T19:08:53.096Z,1.02
2023-01-17T19:09:53.085Z,0.95
2023-01-17T19:10:53.003Z,0.94
2023-01-17T19:11:52.956Z,1.00
2023-01-17T19:12:52.897Z,1.00
2023-01-17T19:13:52.848Z,1.02
2023-01-17T19:14:52.896Z,1.00
2023-01-17T19:15:52.834Z,0.96
2023-01-17T19:16:52.728Z,0.96
2023-01-17T19:17:52.927Z,0.91
2023-01-17T19:18:52.853Z,0.96
2023-01-17T19:19:52.633Z,0.92
2023-01-17T19:20:52.530Z,0.95
2023-01-17T19:21:52.462Z,0.95
2023-01-17T19:22:52.468Z,0.92
2023-01-17T19:23:52.501Z,0.96
2023-01-17T19:24:52.309Z,0.99
2023-01-17T19:25:52.264Z,0.95
2023-01-17T19:26:52.208Z,0.94
2023-01-17T19:27:52.159Z,0.92
2023-01-17T19:28:52.116Z,0.94
2023-01-17T19:29:52.063Z,0.92
2023-01-17T19:30:52.012Z,0.95
2023-01-17T19:31:52.015Z,0.88
2023-01-17T19:32:51.910Z,0.94
2023-01-17T19:33:51.867Z,0.91
2023-01-17T19:34:51.843Z,0.89
2023-01-17T19:35:51.769Z,0.91
2023-01-17T19:36:51.716Z,0.91
2023-01-17T19:37:51.666Z,0.95
2023-01-17T19:39:03.598Z,0.96
2023-01-17T19:39:51.570Z,0.92
2023-01-17T19:40:51.519Z,0.89
2023-01-17T19:41:51.475Z,0.89
2023-01-17T19:42:51.419Z,0.91
2023-01-17T19:43:51.371Z,0.89
2023-01-17T19:44:51.318Z,0.89
2023-01-17T19:45:51.302Z,0.88
2023-01-17T19:46:51.228Z,0.86
2023-01-17T19:47:51.181Z,0.86
2023-01-17T19:48:51.129Z,0.92
2023-01-17T19:49:51.088Z,0.89
2023-01-17T19:50:51.044Z,0.77
2023-01-17T19:51:50.977Z,0.88
2023-01-17T19:52:53.002Z,0.88
2023-01-17T19:53:50.888Z,0.85
2023-01-17T19:54:50.827Z,0.88
2023-01-17T19:55:50.795Z,0.76
2023-01-17T19:56:50.728Z,0.78
2023-01-17T19:57:50.693Z,0.82
2023-01-17T19:58:50.631Z,0.85
2023-01-17T19:59:50.580Z,0.74
2023-01-17T20:00:50.558Z,0.85
2023-01-17T20:01:50.773Z,0.82
2023-01-17T20:02:50.510Z,0.81
2023-01-17T20:03:50.383Z,0.78
2023-01-17T20:04:50.332Z,0.81
2023-01-17T20:05:50.287Z,0.76
2023-01-17T20:06:50.252Z,0.78
2023-01-17T20:07:50.187Z,0.78
2023-01-17T20:08:50.138Z,0.71
2023-01-17T20:09:50.086Z,0.77
2023-01-17T20:10:50.044Z,0.73
2023-01-17T20:11:49.999Z,0.76
2023-01-17T20:12:49.940Z,0.82
2023-01-17T20:13:49.889Z,0.68
2023-01-17T20:14:49.858Z,0.71
2023-01-17T20:15:49.790Z,0.67
2023-01-17T20:16:49.843Z,0.68
2023-01-17T20:17:49.690Z,0.68
2023-01-17T20:18:49.662Z,0.70
2023-01-17T20:19:49.594Z,0.73
2023-01-17T20:20:57.102Z,0.70
2023-01-17T20:21:49.494Z,0.71
2023-01-17T20:22:49.468Z,0.71
2023-01-17T20:23:49.400Z,0.63
2023-01-17T20:24:49.340Z,0.73
2023-01-17T20:25:49.294Z,0.64
2023-01-17T20:26:49.249Z,0.71
2023-01-17T20:27:49.194Z,0.66
2023-01-17T20:28:49.144Z,0.64
2023-01-17T20:29:49.107Z,0.67
2023-01-17T20:30:49.059Z,0.63
2023-01-17T20:31:49.054Z,0.64
2023-01-17T20:32:48.950Z,0.63
2023-01-17T20:33:48.901Z,0.67
2023-01-17T20:34:48.848Z,0.63
2023-01-17T20:35:51.591Z,0.63
2023-01-17T20:36:48.751Z,0.58
2023-01-17T20:37:48.699Z,0.59
2023-01-17T20:38:48.731Z,0.58
2023-01-17T20:39:48.603Z,0.59
2023-01-17T20:40:48.896Z,0.55
2023-01-17T20:41:48.503Z,0.56
2023-01-17T20:43:48.405Z,0.51
2023-01-17T20:44:48.353Z,0.59
2023-01-17T20:45:48.414Z,0.47
2023-01-17T20:46:48.271Z,0.52
2023-01-17T20:47:48.204Z,0.55
2023-01-17T20:48:48.169Z,0.49
2023-01-17T20:49:48.103Z,0.48
2023-01-17T20:50:48.078Z,0.44
2023-01-17T20:51:48.013Z,0.45
2023-01-17T20:52:47.960Z,0.45
2023-01-17T20:53:47.907Z,0.47
2023-01-17T20:54:47.878Z,0.49
2023-01-17T20:55:47.806Z,0.47
2023-01-17T20:56:47.915Z,0.37
2023-01-17T20:57:47.707Z,0.44
2023-01-17T20:58:47.660Z,0.44
2023-01-17T20:59:47.611Z,0.44
2023-01-17T21:00:47.698Z,0.44
2023-01-17T21:01:47.742Z,0.45
2023-01-17T21:02:47.497Z,0.45
2023-01-17T21:03:47.408Z,0.44
2023-01-17T21:04:47.364Z,0.42
2023-01-17T21:05:47.312Z,0.39
2023-01-17T21:06:47.281Z,0.39
2023-01-17T21:07:47.218Z,0.39
2023-01-17T21:08:47.162Z,0.36
2023-01-17T21:09:47.113Z,0.47
2023-01-17T21:10:47.089Z,0.31
2023-01-17T21:11:47.009Z,0.39
2023-01-17T21:12:46.969Z,0.36
2023-01-17T21:13:46.918Z,0.30
2023-01-17T21:14:46.864Z,0.31
2023-01-17T21:15:46.812Z,0.36
2023-01-17T21:16:46.839Z,0.30
2023-01-17T21:17:46.721Z,0.36
2023-01-17T21:18:46.721Z,0.29
2023-01-17T21:19:46.612Z,0.34
2023-01-17T21:20:46.569Z,0.27
2023-01-17T21:21:46.512Z,0.29
2023-01-17T21:22:46.469Z,0.33
2023-01-17T21:23:46.422Z,0.23
2023-01-17T21:24:46.364Z,0.27
2023-01-17T21:25:46.314Z,0.24
2023-01-17T21:26:46.317Z,0.34
2023-01-17T21:27:46.213Z,0.24
2023-01-17T21:28:46.186Z,0.31
2023-01-17T21:29:46.114Z,0.29
2023-01-17T21:30:46.089Z,0.27
2023-01-17T21:31:46.025Z,0.27
2023-01-17T21:32:45.969Z,0.31
2023-01-17T21:33:45.917Z,0.26
2023-01-17T21:34:45.874Z,0.19
2023-01-17T21:35:45.822Z,0.16
2023-01-17T21:36:45.770Z,0.16
2023-01-17T21:37:45.720Z,0.13
2023-01-17T21:38:45.686Z,0.15
2023-01-17T21:39:45.614Z,0.08
2023-01-17T21:40:45.567Z,0.16
2023-01-17T21:41:45.567Z,0.19
2023-01-17T21:42:45.491Z,0.09
2023-01-17T21:43:45.415Z,0.15
2023-01-17T21:44:45.368Z,0.15
2023-01-17T21:45:45.339Z,0.19
2023-01-17T21:46:45.268Z,0.11
2023-01-17T21:47:45.217Z,0.06
2023-01-17T21:48:45.166Z,0.12
2023-01-17T21:49:45.116Z,0.19
2023-01-17T21:50:45.072Z,0.18
2023-01-17T21:51:45.023Z,0.16
2023-01-17T21:52:47.221Z,0.15
2023-01-17T21:53:44.919Z,0.06
2023-01-17T21:54:44.877Z,0.05
2023-01-17T21:55:44.817Z,0.06
2023-01-17T21:56:44.770Z,0.08
2023-01-17T21:57:44.718Z,0.06
2023-01-17T21:58:44.700Z,0.06
2023-01-17T21:59:44.617Z,0.06
2023-01-17T22:00:44.580Z,0.11
2023-01-17T22:01:44.623Z,0.13
2023-01-17T22:02:44.562Z,0.11
2023-01-17T22:03:44.417Z,0.05
2023-01-17T22:04:44.373Z,0.11
2023-01-17T22:05:44.315Z,0.15
2023-01-17T22:06:44.276Z,-0.07
2023-01-17T22:07:44.217Z,-0.05
2023-01-17T22:08:44.171Z,-0.02
2023-01-17T22:09:44.117Z,-0.07
2023-01-17T22:10:44.071Z,0.00
2023-01-17T22:11:44.021Z,-0.03
2023-01-17T22:12:43.967Z,-0.06
2023-01-17T22:13:43.922Z,0.02
2023-01-17T22:14:43.890Z,-0.06
2023-01-17T22:15:43.848Z,-0.06
2023-01-17T22:16:43.769Z,-0.02
2023-01-17T22:17:43.718Z,-0.03
2023-01-17T22:18:43.668Z,-0.03
2023-01-17T22:19:43.632Z,-0.02
2023-01-17T22:20:43.566Z,-0.10
2023-01-17T22:21:43.518Z,-0.02
2023-01-17T22:22:43.467Z,-0.06
2023-01-17T22:23:43.417Z,-0.06
2023-01-17T22:24:43.366Z,-0.12
2023-01-17T22:25:43.318Z,-0.03
2023-01-17T22:26:43.266Z,-0.13
2023-01-17T22:27:43.217Z,-0.03
2023-01-17T22:28:43.173Z,-0.10
2023-01-17T22:29:43.123Z,-0.07
2023-01-17T22:30:43.229Z,-0.13
2023-01-17T22:31:43.072Z,-0.15
2023-01-17T22:32:42.974Z,-0.09
2023-01-17T22:33:42.917Z,-0.15
2023-01-17T22:34:42.873Z,-0.12
2023-01-17T22:35:42.828Z,-0.17
2023-01-17T22:36:42.768Z,-0.12
2023-01-17T22:37:42.720Z,-0.23
2023-01-17T22:38:42.670Z,-0.20
2023-01-17T22:39:42.620Z,-0.23
2023-01-17T22:40:42.566Z,-0.23
2023-01-17T22:41:42.518Z,-0.23
2023-01-17T22:42:42.478Z,-0.21
2023-01-17T22:43:42.425Z,-0.24
2023-01-17T22:44:42.368Z,-0.21
2023-01-17T22:45:42.317Z,-0.24
2023-01-17T22:46:42.368Z,-0.26
2023-01-17T22:47:42.217Z,-0.28
2023-01-17T22:48:42.174Z,-0.26
2023-01-17T22:49:42.121Z,-0.27
2023-01-17T22:50:42.063Z,-0.38
2023-01-17T22:51:42.015Z,-0.28
2023-01-17T22:52:41.998Z,-0.31
2023-01-17T22:53:41.942Z,-0.31
2023-01-17T22:54:41.865Z,-0.30
2023-01-17T22:55:41.816Z,-0.33
2023-01-17T22:56:41.769Z,-0.30
2023-01-17T22:57:41.716Z,-0.39
2023-01-17T22:58:41.670Z,-0.33
2023-01-17T22:59:41.624Z,-0.36
2023-01-17T23:00:41.576Z,-0.44
2023-01-17T23:01:41.526Z,-0.41
2023-01-17T23:02:41.580Z,-0.39
2023-01-17T23:03:41.450Z,-0.31
2023-01-17T23:04:41.367Z,-0.38
2023-01-17T23:05:41.312Z,-0.35
2023-01-17T23:06:41.261Z,-0.36
2023-01-17T23:07:41.213Z,-0.36
2023-01-17T23:08:41.158Z,-0.36
2023-01-17T23:09:41.114Z,-0.28
2023-01-17T23:10:41.059Z,-0.31
2023-01-17T23:11:41.270Z,-0.33
2023-01-17T23:12:40.959Z,-0.36
2023-01-17T23:13:40.909Z,-0.42
2023-01-17T23:14:40.869Z,-0.39
2023-01-17T23:15:40.886Z,-0.39
2023-01-17T23:16:40.772Z,-0.35
2023-01-17T23:17:40.709Z,-0.36
2023-01-17T23:18:40.677Z,-0.35
2023-01-17T23:19:40.612Z,-0.44
2023-01-17T23:20:40.556Z,-0.41
2023-01-17T23:21:40.551Z,-0.49
2023-01-17T23:22:40.473Z,-0.39
2023-01-17T23:23:40.413Z,-0.36
2023-01-17T23:24:40.356Z,-0.44
2023-01-17T23:25:40.309Z,-0.46
2023-01-17T23:26:40.254Z,-0.44
2023-01-17T23:27:40.225Z,-0.39
2023-01-17T23:28:40.164Z,-0.48
2023-01-17T23:29:40.114Z,-0.46
2023-01-17T23:30:40.053Z,-0.42
2023-01-17T23:31:40.067Z,-0.39
2023-01-17T23:32:39.977Z,-0.49
2023-01-17T23:33:39.939Z,-0.44
2023-01-17T23:34:39.882Z,-0.45
2023-01-17T23:35:42.176Z,-0.46
2023-01-17T23:36:39.751Z,-0.51
2023-01-17T23:37:39.704Z,-0.44
2023-01-17T23:38:39.654Z,-0.44
2023-01-17T23:39:39.617Z,-0.46
2023-01-17T23:40:39.597Z,-0.48
2023-01-17T23:41:39.567Z,-0.46
2023-01-17T23:42:39.508Z,-0.46
2023-01-17T23:43:39.402Z,-0.51
2023-01-17T23:44:39.347Z,-0.48
2023-01-17T23:45:39.299Z,-0.48
2023-01-17T23:46:39.262Z,-0.51
2023-01-17T23:47:39.199Z,-0.49
2023-01-17T23:48:39.147Z,-0.45
